Time;durP1;ratioP1;P1;durP2;ratioP2;P2;SDS_P1;SDS_P2;PMS_P1;PMS_P2;Temp;Humidity;BMP_temperature;BMP_pressure;BME280_temperature;BME280_humidity;BME280_pressure;Samples;Min_cycle;Max_cycle;Signal;HPM_P1;HPM_P2
2021/11/02 09:59:58;;;;;;;561.08;86.70;;;;;;;3.21;81.35;100297.44;5093553;27;20772;-77
2021/11/02 10:02:41;;;;;;;579.92;91.28;;;;;;;3.35;80.92;100306.09;5089574;28;20036;-83
2021/11/02 10:05:22;;;;;;;565.33;88.38;;;;;;;3.59;80.43;100298.69;5089025;28;20086;-77
2021/11/02 10:08:04;;;;;;;565.10;90.07;;;;;;;3.74;79.20;100304.38;5089371;28;20139;-75
2021/11/02 10:11:16;;;;;;;509.80;86.78;;;;;;;3.76;79.05;100291.44;5088125;28;20465;-75
2021/11/02 10:14:05;;;;;;;488.15;90.00;;;;;;;3.85;78.89;100294.56;5053595;28;20066;-76
2021/11/02 10:16:49;;;;;;;512.95;93.93;;;;;;;3.86;79.19;100291.59;5088312;28;20033;-77
2021/11/02 10:20:01;;;;;;;435.60;84.80;;;;;;;3.77;79.03;100301.19;5087103;28;20052;-74
2021/11/02 10:22:47;;;;;;;562.92;94.65;;;;;;;3.74;79.32;100294.38;5101486;28;20031;-75
2021/11/02 10:26:00;;;;;;;578.17;98.75;;;;;;;3.75;79.26;100293.31;5103123;28;20044;-74
2021/11/02 10:29:07;;;;;;;549.08;106.38;;;;;;;3.77;79.80;100293.06;5100984;28;20096;-76
2021/11/02 10:31:57;;;;;;;605.22;103.72;;;;;;;3.72;79.52;100282.97;5105765;28;20033;-80
2021/11/02 10:34:42;;;;;;;543.67;97.53;;;;;;;3.87;79.48;100287.00;5092010;28;20040;-86
2021/11/02 10:37:15;;;;;;;519.72;98.88;;;;;;;4.02;79.53;100289.16;5098239;28;20043;-76
2021/11/02 10:40:01;;;;;;;539.33;98.53;;;;;;;3.94;79.22;100285.81;5100889;28;20048;-80
2021/11/02 10:42:52;;;;;;;607.10;101.97;;;;;;;4.03;79.89;100280.78;5073817;28;20122;-76
2021/11/02 10:45:25;;;;;;;618.35;92.18;;;;;;;4.03;79.01;100288.09;5089048;28;20043;-81
2021/11/02 10:48:03;;;;;;;536.70;94.28;;;;;;;4.12;78.66;100273.91;5089098;28;20047;-83
2021/11/02 10:50:37;;;;;;;539.47;96.15;;;;;;;4.22;78.58;100276.75;5086773;28;20566;-77
2021/11/02 10:53:09;;;;;;;611.35;110.93;;;;;;;4.21;78.76;100279.72;5087894;28;20106;-84
2021/11/02 10:56:13;;;;;;;470.40;100.35;;;;;;;4.25;78.89;100278.16;5072962;28;20327;-83
2021/11/02 10:58:49;;;;;;;407.48;93.97;;;;;;;4.57;78.90;100275.66;5066597;28;20102;-74
2021/11/02 11:01:17;;;;;;;414.07;91.50;;;;;;;4.67;77.65;100258.72;5107526;28;20081;-79
2021/11/02 11:03:47;;;;;;;425.13;90.28;;;;;;;4.76;77.20;100273.47;5106685;28;20032;-83
2021/11/02 11:06:15;;;;;;;528.83;100.35;;;;;;;4.67;76.81;100272.28;5107836;28;20075;-83
2021/11/02 11:08:43;;;;;;;;;;;;;;;4.54;77.03;100243.66;5108580;28;20040;-83
2021/11/02 11:11:18;;;;;;;517.17;94.93;;;;;;;4.59;77.34;100269.97;5069379;28;19928;-85
2021/11/02 11:13:47;;;;;;;540.40;93.55;;;;;;;4.42;78.00;100270.84;5073330;28;20045;-94
2021/11/02 11:16:17;;;;;;;479.05;92.75;;;;;;;4.26;78.53;100255.44;5040538;28;20123;-88
2021/11/02 11:19:27;;;;;;;449.30;89.85;;;;;;;4.44;78.64;100262.47;5075310;28;20044;-78
2021/11/02 11:21:58;;;;;;;453.67;90.47;;;;;;;4.43;78.60;100258.94;5074816;28;20041;-85
2021/11/02 11:24:34;;;;;;;429.85;85.38;;;;;;;4.46;78.60;100244.06;5074394;28;20043;-83
2021/11/02 11:27:06;;;;;;;474.00;91.20;;;;;;;4.51;78.52;100256.88;5074558;28;20520;-93
2021/11/02 11:29:35;;;;;;;492.65;85.70;;;;;;;4.36;78.99;100258.28;5075369;28;20051;-92
2021/11/02 11:32:03;;;;;;;418.65;84.57;;;;;;;4.37;79.18;100265.38;5074992;28;20032;-82
2021/11/02 11:34:32;;;;;;;396.08;85.35;;;;;;;4.43;78.94;100267.06;5072114;28;20037;-93
2021/11/02 11:37:00;;;;;;;582.40;89.43;;;;;;;4.38;78.87;100275.13;5055794;28;20051;-84
2021/11/02 11:39:31;;;;;;;510.08;85.25;;;;;;;4.34;79.20;100263.16;5075546;28;20479;-87
2021/11/02 11:42:00;;;;;;;405.48;82.68;;;;;;;4.35;79.17;100263.97;5074046;28;20036;-94
2021/11/02 11:44:27;;;;;;;421.70;89.60;;;;;;;4.49;79.13;100273.38;5073500;28;20051;-87
2021/11/02 11:47:07;;;;;;;;;;;;;;;4.74;78.47;100263.97;5075378;28;20044;-76
2021/11/02 11:49:39;;;;;;;316.83;75.20;;;;;;;4.72;78.01;100245.25;5075457;28;19924;-87
2021/11/02 11:52:08;;;;;;;409.42;85.70;;;;;;;4.68;77.97;100265.78;5076173;28;20036;-79
2021/11/02 11:54:50;;;;;;;460.80;87.18;;;;;;;4.69;78.19;100262.00;5074036;28;20033;-92
2021/11/02 11:57:27;;;;;;;501.00;85.15;;;;;;;4.59;78.03;100249.13;5073713;28;20123;-73
2021/11/02 12:00:08;;;;;;;475.00;78.10;;;;;;;4.56;78.33;100259.66;5070362;28;20036;-77
2021/11/02 12:03:11;;;;;;;416.02;79.60;;;;;;;4.52;78.42;100261.22;5074022;28;20048;-88
2021/11/02 12:05:46;;;;;;;430.30;82.68;;;;;;;4.53;78.41;100260.16;5074192;28;20040;-86
2021/11/02 12:08:20;;;;;;;394.85;83.95;;;;;;;4.50;78.99;100258.75;5076667;28;20033;-77
2021/11/02 12:10:50;;;;;;;411.40;82.90;;;;;;;4.43;79.22;100256.22;5073364;28;20036;-87
2021/11/02 12:13:18;;;;;;;385.83;77.25;;;;;;;4.47;78.80;100261.97;5081610;28;20048;-82
2021/11/02 12:16:10;;;;;;;416.88;79.00;;;;;;;4.43;78.68;100253.50;5078161;28;20044;-76
2021/11/02 12:18:42;;;;;;;420.58;79.60;;;;;;;4.48;78.30;100255.50;5043210;28;20044;-80
2021/11/02 12:21:16;;;;;;;440.63;77.15;;;;;;;4.40;78.84;100245.91;5073439;28;20041;-86
2021/11/02 12:23:45;;;;;;;357.48;81.78;;;;;;;4.32;78.91;100250.94;5073455;28;20139;-78
2021/11/02 12:26:12;;;;;;;388.73;78.30;;;;;;;4.28;79.16;100257.91;5074215;28;20093;-91
2021/11/02 12:28:41;;;;;;;418.92;80.47;;;;;;;4.28;79.12;100249.78;5075547;28;20070;-83
2021/11/02 12:31:10;;;;;;;451.80;84.28;;;;;;;4.27;79.15;100261.66;5074704;28;20087;-88
2021/11/02 12:33:43;;;;;;;363.90;81.07;;;;;;;4.39;79.32;100265.91;5075351;28;20055;-81
2021/11/02 12:36:17;;;;;;;461.08;79.28;;;;;;;4.22;78.88;100252.41;5067706;28;20885;-76
2021/11/02 12:38:43;;;;;;;419.88;89.53;;;;;;;4.28;79.81;100256.03;5072815;28;20036;-91
2021/11/02 12:41:20;;;;;;;409.90;82.13;;;;;;;4.22;79.41;100257.00;5071905;28;20127;-86
2021/11/02 12:44:05;;;;;;;428.73;86.93;;;;;;;4.15;79.67;100262.59;5073447;28;20139;-88
2021/11/02 12:46:32;;;;;;;404.30;82.63;;;;;;;4.07;79.58;100240.53;5065515;28;20028;-85
2021/11/02 12:49:26;;;;;;;422.75;80.43;;;;;;;4.27;79.39;100257.06;5077117;28;20483;-79
2021/11/02 12:52:01;;;;;;;418.27;84.15;;;;;;;4.37;79.16;100259.94;5060113;28;20037;-77
2021/11/02 12:54:31;;;;;;;421.77;87.82;;;;;;;4.41;80.21;100258.38;5071668;28;20132;-83
2021/11/02 12:57:08;;;;;;;326.58;77.55;;;;;;;4.57;79.94;100256.72;5072399;28;20033;-83
2021/11/02 12:59:41;;;;;;;336.80;82.57;;;;;;;4.63;78.30;100255.69;5072656;28;20654;-78
2021/11/02 13:02:36;;;;;;;330.63;75.18;;;;;;;4.64;78.24;100256.53;5072305;28;20462;-77
2021/11/02 13:05:13;;;;;;;357.52;72.70;;;;;;;4.54;78.15;100259.09;5054751;28;20044;-76
2021/11/02 13:07:42;;;;;;;391.00;73.65;;;;;;;4.56;78.34;100251.53;5056095;28;20048;-81
2021/11/02 13:10:16;;;;;;;380.90;73.47;;;;;;;4.69;78.55;100262.81;5071479;28;20033;-91
2021/11/02 13:12:45;;;;;;;410.27;75.68;;;;;;;4.64;77.92;100249.22;5072457;28;20048;-81
2021/11/02 13:15:11;;;;;;;418.20;74.55;;;;;;;4.59;77.93;100257.25;5072135;28;20076;-80
2021/11/02 13:17:44;;;;;;;361.50;79.13;;;;;;;4.63;78.08;100269.22;5072430;28;20150;-86
2021/11/02 13:20:28;;;;;;;406.27;76.20;;;;;;;4.64;77.96;100260.03;5071984;28;20041;-84
2021/11/02 13:22:55;;;;;;;369.67;73.93;;;;;;;4.64;77.93;100262.75;5072825;28;20066;-87
2021/11/02 13:25:24;;;;;;;397.50;75.28;;;;;;;4.58;77.97;100266.47;5072664;28;20048;-76
2021/11/02 13:27:56;;;;;;;373.40;76.03;;;;;;;4.56;78.43;100259.66;5072312;28;20529;-87
2021/11/02 13:30:46;;;;;;;422.80;80.47;;;;;;;4.50;78.08;100256.03;5071915;28;20037;-79
2021/11/02 13:33:24;;;;;;;480.65;78.45;;;;;;;4.57;78.50;100272.94;5069569;28;20532;-83
2021/11/02 13:35:52;;;;;;;433.95;77.45;;;;;;;4.50;78.09;100266.06;5070337;28;20124;-77
2021/11/02 13:38:32;;;;;;;427.75;74.95;;;;;;;4.44;78.44;100265.19;5070588;28;20051;-75
2021/11/02 13:41:24;;;;;;;397.10;77.85;;;;;;;4.46;78.55;100266.56;5071387;28;20090;-75
2021/11/02 13:43:56;;;;;;;352.33;70.43;;;;;;;4.46;78.36;100257.63;5080649;28;20036;-78
2021/11/02 13:46:26;;;;;;;358.80;75.85;;;;;;;4.48;78.37;100256.31;5074901;28;20036;-76
2021/11/02 13:48:54;;;;;;;359.15;77.55;;;;;;;4.47;78.99;100251.97;5073509;28;20036;-77
2021/11/02 13:51:21;;;;;;;374.20;78.05;;;;;;;4.34;79.07;100241.50;5072342;28;20116;-78
2021/11/02 13:53:48;;;;;;;406.23;74.22;;;;;;;4.49;78.90;100265.25;5072494;28;20044;-76
2021/11/02 13:56:19;;;;;;;305.80;68.40;;;;;;;4.52;80.34;100247.69;5072989;28;20444;-78
2021/11/02 13:58:46;;;;;;;421.25;71.82;;;;;;;4.70;78.64;100256.34;5069768;28;20070;-87
2021/11/02 14:01:39;;;;;;;327.65;64.65;;;;;;;4.70;77.78;100241.94;5071713;28;20451;-75
2021/11/02 14:04:13;;;;;;;391.42;74.28;;;;;;;4.86;77.34;100254.63;5068866;28;21490;-75
2021/11/02 14:06:46;;;;;;;340.08;71.07;;;;;;;4.88;78.67;100254.38;5071290;28;20045;-75
2021/11/02 14:09:15;;;;;;;448.55;74.28;;;;;;;4.82;77.40;100255.38;5071067;28;20041;-75
2021/11/02 14:11:42;;;;;;;396.10;73.40;;;;;;;4.80;77.44;100249.38;5070286;28;20131;-74
2021/11/02 14:14:38;;;;;;;494.63;77.63;;;;;;;4.71;77.37;100249.84;5073063;28;20098;-75
2021/11/02 14:17:19;;;;;;;415.63;73.65;;;;;;;4.67;77.72;100256.84;5053865;28;20123;-75
2021/11/02 14:19:48;;;;;;;518.15;74.78;;;;;;;4.57;78.10;100255.88;5068520;28;20412;-76
2021/11/02 14:22:35;;;;;;;539.22;75.20;;;;;;;4.53;78.04;100243.91;5072788;28;20534;-76
2021/11/02 14:25:11;;;;;;;;;;;;;;;4.48;78.71;100252.78;5073658;28;20533;-76
2021/11/02 14:27:45;;;;;;;;;;;;;;;4.39;78.83;100246.16;5073929;28;20385;-77
2021/11/02 14:30:38;;;;;;;515.05;74.03;;;;;;;4.14;80.25;100235.75;5073161;28;19920;-76
2021/11/02 14:33:11;;;;;;;527.03;79.60;;;;;;;4.21;80.56;100236.44;5072244;28;20036;-74
2021/11/02 14:35:53;;;;;;;625.22;81.60;;;;;;;4.09;80.59;100230.28;5070179;28;20032;-77
2021/11/02 14:38:26;;;;;;;618.03;80.80;;;;;;;4.02;80.99;100224.22;5070844;28;20040;-74
2021/11/02 14:40:56;;;;;;;487.58;81.82;;;;;;;4.09;81.28;100220.28;5070639;28;20036;-75
2021/11/02 14:43:30;;;;;;;503.20;75.68;;;;;;;3.85;82.01;100208.00;5071138;28;20390;-84
2021/11/02 14:46:17;;;;;;;653.90;80.95;;;;;;;3.79;82.51;100212.50;5074266;28;20036;-76
2021/11/02 14:48:50;;;;;;;481.38;79.35;;;;;;;3.82;82.37;100206.63;5069704;28;20036;-76
2021/11/02 14:51:25;;;;;;;586.28;77.13;;;;;;;3.75;82.47;100204.06;5069632;28;20060;-77
2021/11/02 14:53:53;;;;;;;663.55;80.75;;;;;;;3.68;83.28;100206.13;5072963;28;20512;-74
2021/11/02 14:56:18;;;;;;;;;;;;;;;3.72;82.78;100209.97;5073463;28;20072;-74
2021/11/02 14:58:49;;;;;;;445.17;78.87;;;;;;;3.63;83.15;100202.50;5072765;28;19974;-73
2021/11/02 15:01:39;;;;;;;771.38;77.53;;;;;;;3.60;83.17;100211.09;5073848;28;20701;-81
2021/11/02 15:04:20;;;;;;;585.58;82.28;;;;;;;3.70;82.92;100224.78;5072503;28;20049;-78
2021/11/02 15:06:52;;;;;;;518.60;70.32;;;;;;;3.65;82.82;100219.31;5072432;28;20515;-78
2021/11/02 15:09:20;;;;;;;573.03;75.88;;;;;;;3.57;82.96;100222.41;5071948;28;20047;-78
2021/11/02 15:11:49;;;;;;;529.00;74.18;;;;;;;3.48;83.34;100211.19;5070847;28;20559;-82
2021/11/02 15:14:18;;;;;;;539.33;70.75;;;;;;;3.50;83.28;100220.69;5072501;28;20590;-78
2021/11/02 15:16:49;;;;;;;509.25;73.25;;;;;;;3.41;83.20;100200.53;5073262;28;20037;-88
2021/11/02 15:19:18;;;;;;;523.03;68.80;;;;;;;3.49;82.95;100213.66;5072647;28;20101;-77
2021/11/02 15:22:05;;;;;;;478.30;69.50;;;;;;;3.62;82.57;100226.03;5073333;28;20036;-79
2021/11/02 15:24:39;;;;;;;514.88;70.63;;;;;;;3.63;82.76;100232.25;5069349;28;20032;-77
2021/11/02 15:27:22;;;;;;;415.48;70.00;;;;;;;3.65;82.77;100214.72;5073184;28;20068;-77
2021/11/02 15:29:54;;;;;;;482.17;67.22;;;;;;;3.71;82.15;100223.75;5072567;28;20047;-80
2021/11/02 15:32:23;;;;;;;420.33;62.08;;;;;;;3.56;82.99;100223.47;5072402;28;20036;-83
2021/11/02 15:34:58;;;;;;;401.67;71.93;;;;;;;3.64;82.73;100233.88;5070469;28;20036;-77
2021/11/02 15:37:30;;;;;;;426.27;66.88;;;;;;;3.55;82.57;100222.66;5073706;28;20079;-82
2021/11/02 15:39:58;;;;;;;327.67;64.80;;;;;;;3.59;82.77;100234.63;5073796;28;20051;-80
2021/11/02 15:42:28;;;;;;;398.10;65.30;;;;;;;3.58;82.73;100218.66;5071894;28;20037;-79
2021/11/02 15:45:03;;;;;;;399.95;59.97;;;;;;;3.45;82.69;100215.19;5069918;28;20059;-87
2021/11/02 15:47:31;;;;;;;455.75;64.88;;;;;;;3.50;82.92;100219.88;5071423;28;20066;-78
2021/11/02 15:50:07;;;;;;;356.95;65.57;;;;;;;3.53;82.97;100232.91;5071745;28;20040;-78
2021/11/02 15:52:36;;;;;;;329.05;61.80;;;;;;;3.44;82.80;100207.31;5070528;28;20127;-81
2021/11/02 15:55:15;;;;;;;408.48;59.22;;;;;;;3.47;82.91;100223.06;5070626;28;20395;-76
2021/11/02 15:57:44;;;;;;;343.98;58.80;;;;;;;3.44;83.17;100226.25;5068745;28;20458;-76
2021/11/02 16:00:14;;;;;;;293.95;58.97;;;;;;;3.44;82.83;100227.06;5070954;28;20043;-79
2021/11/02 16:02:46;;;;;;;279.27;57.63;;;;;;;3.47;82.95;100218.47;5068308;28;20033;-82
2021/11/02 16:05:33;;;;;;;283.85;56.78;;;;;;;3.50;82.36;100228.78;5066526;28;20409;-82
2021/11/02 16:08:19;;;;;;;291.20;56.42;;;;;;;3.61;82.32;100237.91;5070238;28;20040;-79
2021/11/02 16:11:09;;;;;;;271.15;56.78;;;;;;;3.60;82.21;100240.84;5070137;28;20082;-79
2021/11/02 16:13:36;;;;;;;282.08;52.25;;;;;;;3.50;82.34;100242.31;5069286;28;20033;-81
2021/11/02 16:16:07;;;;;;;281.07;52.97;;;;;;;3.50;82.41;100247.72;5070770;28;20036;-82
2021/11/02 16:18:35;;;;;;;274.77;57.22;;;;;;;3.52;82.36;100229.38;5069370;28;20093;-81
2021/11/02 16:21:07;;;;;;;276.02;56.63;;;;;;;3.60;82.03;100240.84;5071188;28;20037;-79
2021/11/02 16:23:48;;;;;;;286.83;56.70;;;;;;;3.59;81.96;100240.03;5070730;28;20028;-80
2021/11/02 16:26:26;;;;;;;253.88;50.88;;;;;;;3.60;82.05;100238.16;5070282;28;20036;-80
2021/11/02 16:28:58;;;;;;;276.50;52.10;;;;;;;3.59;81.76;100229.22;5070217;28;20052;-82
2021/11/02 16:31:28;;;;;;;270.38;51.40;;;;;;;3.66;81.75;100238.00;5070562;28;20090;-80
2021/11/02 16:33:55;;;;;;;255.93;52.42;;;;;;;3.56;81.72;100215.38;5069485;28;20037;-79
2021/11/02 16:36:31;;;;;;;259.27;52.97;;;;;;;3.67;81.68;100228.00;5070180;28;20037;-79
2021/11/02 16:39:03;;;;;;;249.38;51.47;;;;;;;3.64;81.78;100237.44;5070449;28;20040;-79
2021/11/02 16:41:32;;;;;;;231.93;54.03;;;;;;;3.61;82.10;100239.78;5071009;28;20170;-79
2021/11/02 16:44:03;;;;;;;240.82;49.33;;;;;;;3.63;81.74;100216.03;5069295;28;20041;-80
2021/11/02 16:46:37;;;;;;;214.40;48.50;;;;;;;3.62;81.51;100233.31;5071410;28;20043;-79
2021/11/02 16:49:06;;;;;;;218.38;50.90;;;;;;;3.64;81.68;100228.47;5081130;28;20032;-81
2021/11/02 16:51:55;;;;;;;194.65;46.55;;;;;;;3.67;81.21;100219.88;5071221;28;20092;-77
2021/11/02 16:54:29;;;;;;;206.95;47.70;;;;;;;3.70;81.38;100224.78;5081857;28;20040;-79
2021/11/02 16:57:04;;;;;;;269.13;51.67;;;;;;;3.61;81.68;100228.97;5071959;28;20055;-78
2021/11/02 16:59:40;;;;;;;322.40;54.80;;;;;;;3.56;81.98;100226.19;5070106;28;20513;-79
2021/11/02 17:02:44;;;;;;;292.55;51.70;;;;;;;3.57;81.77;100241.34;5071575;28;20040;-79
2021/11/02 17:05:18;;;;;;;236.98;48.45;;;;;;;3.60;81.80;100235.44;5068602;28;20639;-79
2021/11/02 17:08:03;;;;;;;229.70;49.67;;;;;;;3.58;81.83;100238.41;5068686;28;20138;-79
2021/11/02 17:10:34;;;;;;;232.85;47.00;;;;;;;3.71;81.27;100229.16;5065284;28;20401;-79
2021/11/02 17:13:08;;;;;;;220.98;47.10;;;;;;;3.55;81.04;100211.03;5070100;28;20029;-81
2021/11/02 17:15:51;;;;;;;217.75;47.55;;;;;;;3.68;81.11;100218.84;5069234;28;20059;-83
2021/11/02 17:18:42;;;;;;;221.77;48.78;;;;;;;3.75;81.01;100230.31;5070295;28;20132;-83
2021/11/02 17:21:12;;;;;;;225.10;46.13;;;;;;;3.68;80.73;100208.84;5070550;28;20133;-78
2021/11/02 17:23:39;;;;;;;239.07;49.22;;;;;;;3.57;81.63;100207.00;5070746;28;20073;-79
2021/11/02 17:26:07;;;;;;;233.63;45.88;;;;;;;3.53;81.67;100227.50;5069005;28;20467;-80
2021/11/02 17:28:34;;;;;;;258.85;47.65;;;;;;;3.48;81.95;100225.53;5070535;28;20036;-79
2021/11/02 17:31:02;;;;;;;279.25;48.72;;;;;;;3.62;81.66;100226.03;5067207;28;20036;-78
2021/11/02 17:33:30;;;;;;;266.88;49.67;;;;;;;3.61;81.10;100212.75;5069047;28;20045;-80
2021/11/02 17:35:56;;;;;;;254.25;49.67;;;;;;;3.57;81.26;100207.00;5069001;28;20044;-79
2021/11/02 17:38:23;;;;;;;219.23;45.10;;;;;;;3.60;81.23;100227.34;5067055;28;20162;-80
2021/11/02 17:40:51;;;;;;;236.10;47.63;;;;;;;3.56;81.25;100224.31;5068703;28;20588;-79
2021/11/02 17:43:18;;;;;;;279.55;50.47;;;;;;;3.46;81.68;100222.25;5069260;28;20036;-79
2021/11/02 17:45:44;;;;;;;256.52;47.15;;;;;;;3.48;81.41;100220.13;5069195;28;20055;-80
2021/11/02 17:48:14;;;;;;;259.35;46.38;;;;;;;3.42;81.59;100218.38;5068371;28;20059;-79
2021/11/02 17:50:44;;;;;;;263.10;47.35;;;;;;;3.37;82.04;100217.47;5067704;28;20036;-79
2021/11/02 17:53:10;;;;;;;329.52;49.28;;;;;;;3.35;82.09;100214.22;5084851;28;20119;-81
2021/11/02 17:55:37;;;;;;;261.55;48.80;;;;;;;3.38;82.00;100214.53;5067581;28;20505;-81
2021/11/02 17:58:05;;;;;;;242.32;46.83;;;;;;;3.46;81.70;100224.94;5068541;28;20139;-78
2021/11/02 18:00:33;;;;;;;223.80;45.65;;;;;;;3.41;81.65;100222.16;5067050;28;20039;-79
2021/11/02 18:02:59;;;;;;;234.65;46.55;;;;;;;3.51;81.67;100224.22;5065668;28;20163;-78
2021/11/02 18:05:30;;;;;;;219.38;42.10;;;;;;;3.56;80.91;100232.41;5068248;28;20040;-77
2021/11/02 18:07:59;;;;;;;238.63;46.22;;;;;;;3.69;80.79;100236.69;5068407;28;20093;-78
2021/11/02 18:10:27;;;;;;;229.05;43.10;;;;;;;3.53;80.51;100217.50;5068750;28;20035;-79
2021/11/02 18:12:54;;;;;;;245.27;45.83;;;;;;;3.53;80.60;100216.69;5068668;28;20077;-80
2021/11/02 18:15:21;;;;;;;222.52;45.38;;;;;;;3.61;80.54;100223.56;5068260;28;20618;-78
2021/11/02 18:17:51;;;;;;;259.10;42.28;;;;;;;3.63;80.54;100224.97;5067462;28;20084;-80
2021/11/02 18:20:20;;;;;;;234.73;46.25;;;;;;;3.71;80.37;100226.47;5068117;28;20043;-78
2021/11/02 18:22:49;;;;;;;284.90;45.13;;;;;;;3.67;80.12;100222.56;5072517;28;20047;-79
2021/11/02 18:25:17;;;;;;;251.85;45.75;;;;;;;3.53;80.79;100227.50;5071232;28;20525;-81
2021/11/02 18:27:45;;;;;;;251.45;45.65;;;;;;;3.45;81.40;100230.59;5073515;28;20032;-78
2021/11/02 18:30:13;;;;;;;264.17;47.25;;;;;;;3.47;81.43;100225.75;5070770;28;20417;-79
2021/11/02 18:32:44;;;;;;;280.55;43.63;;;;;;;3.41;81.05;100221.31;5071564;28;20047;-78
2021/11/02 18:35:14;;;;;;;320.95;45.83;;;;;;;3.44;81.31;100220.84;5072619;28;20032;-79
2021/11/02 18:37:44;;;;;;;284.98;45.67;;;;;;;3.52;81.04;100240.19;5071823;28;20041;-79
2021/11/02 18:40:15;;;;;;;306.23;43.03;;;;;;;3.58;81.10;100234.88;5071877;28;20039;-78
2021/11/02 18:42:44;;;;;;;324.30;44.42;;;;;;;3.52;80.76;100229.38;5072423;28;20088;-80
2021/11/02 18:45:12;;;;;;;279.35;43.30;;;;;;;3.46;80.77;100211.44;5072687;28;20123;-78
2021/11/02 18:47:39;;;;;;;248.10;43.10;;;;;;;3.49;81.14;100219.06;5074420;28;20119;-82
2021/11/02 18:50:06;;;;;;;270.75;44.35;;;;;;;3.47;81.08;100231.97;5075149;28;20436;-79
2021/11/02 18:52:33;;;;;;;295.42;46.45;;;;;;;3.57;80.84;100225.13;5074762;28;20052;-77
2021/11/02 18:54:59;;;;;;;213.88;43.70;;;;;;;3.41;81.18;100224.88;5073244;28;20588;-88
2021/11/02 18:57:28;;;;;;;261.42;45.50;;;;;;;3.50;81.12;100238.78;5055838;28;20478;-85
2021/11/02 18:59:54;;;;;;;274.38;47.78;;;;;;;3.38;81.14;100211.84;5054969;28;20131;-86
2021/11/02 19:02:23;;;;;;;243.77;44.20;;;;;;;3.50;81.13;100226.09;5073070;28;20093;-87
2021/11/02 19:04:59;;;;;;;281.02;44.80;;;;;;;3.44;80.95;100213.53;5070945;28;20469;-86
2021/11/02 19:07:29;;;;;;;235.85;47.33;;;;;;;3.30;81.21;100215.72;5032462;28;20037;-85
2021/11/02 19:10:00;;;;;;;286.88;49.20;;;;;;;3.36;81.57;100238.28;5072604;28;20036;-88
2021/11/02 19:12:30;;;;;;;244.23;45.30;;;;;;;3.46;81.55;100238.44;5056022;28;20419;-84
2021/11/02 19:14:57;;;;;;;228.52;44.88;;;;;;;3.46;81.30;100245.75;5072792;28;20132;-76
2021/11/02 19:17:24;;;;;;;242.23;47.20;;;;;;;3.50;81.50;100236.91;5072990;28;20037;-84
2021/11/02 19:19:50;;;;;;;328.83;51.88;;;;;;;3.50;81.39;100239.59;5071187;28;20048;-84
2021/11/02 19:22:16;;;;;;;316.97;50.87;;;;;;;3.53;81.21;100238.31;5066665;28;20040;-94
2021/11/02 19:24:44;;;;;;;299.08;46.90;;;;;;;3.48;81.20;100232.81;5076349;28;20040;-77
2021/11/02 19:27:10;;;;;;;239.77;44.67;;;;;;;3.46;81.42;100229.53;5071874;28;20528;-80
2021/11/02 19:29:36;;;;;;;232.77;45.17;;;;;;;3.47;81.34;100229.28;5074065;28;20051;-73
2021/11/02 19:32:03;;;;;;;243.63;42.60;;;;;;;3.42;81.35;100237.31;5050172;28;20402;-77
2021/11/02 19:34:31;;;;;;;289.48;49.47;;;;;;;3.41;81.65;100229.44;5070341;28;20503;-79
2021/11/02 19:37:01;;;;;;;291.60;43.88;;;;;;;3.43;81.46;100232.72;5071969;28;20037;-79
2021/11/02 19:39:28;;;;;;;297.95;44.50;;;;;;;3.45;81.48;100236.81;5072362;28;20056;-78
2021/11/02 19:41:55;;;;;;;;;;;;;;;3.55;81.45;100230.78;5069643;28;20060;-77
2021/11/02 19:44:23;;;;;;;220.75;41.80;;;;;;;3.70;81.24;100235.63;5070890;28;20834;-74
2021/11/02 19:46:49;;;;;;;238.63;43.55;;;;;;;3.52;80.96;100215.88;5068931;28;20445;-78
2021/11/02 19:49:17;;;;;;;256.98;45.38;;;;;;;3.70;81.03;100238.31;5069714;28;20102;-76
2021/11/02 19:51:44;;;;;;;246.27;45.33;;;;;;;3.81;80.36;100240.16;5067473;28;20043;-75
2021/11/02 19:54:12;;;;;;;245.82;42.88;;;;;;;3.61;80.71;100239.78;5068551;28;20039;-75
2021/11/02 19:56:39;;;;;;;251.35;43.75;;;;;;;3.48;81.63;100239.03;5068685;28;20606;-77
2021/11/02 19:59:06;;;;;;;234.52;44.08;;;;;;;3.49;81.51;100237.97;5071979;28;20106;-75
2021/11/02 20:01:34;;;;;;;235.20;43.60;;;;;;;3.62;81.39;100236.84;5071995;28;20119;-87
2021/11/02 20:04:00;;;;;;;287.23;42.08;;;;;;;3.44;81.51;100221.66;5069597;28;20128;-79
2021/11/02 20:06:42;;;;;;;290.30;44.10;;;;;;;3.58;81.63;100232.19;5071620;28;20119;-79
2021/11/02 20:09:12;;;;;;;267.67;42.08;;;;;;;3.51;81.67;100229.63;5071151;28;20036;-78
2021/11/02 20:11:53;;;;;;;293.60;43.65;;;;;;;3.59;81.62;100241.94;5068089;28;20041;-77
2021/11/02 20:14:20;;;;;;;336.90;47.45;;;;;;;3.59;81.65;100240.03;5053397;28;20056;-78
2021/11/02 20:16:54;;;;;;;254.23;44.55;;;;;;;3.63;81.62;100240.38;5070112;28;20047;-75
2021/11/02 20:19:27;;;;;;;260.10;47.97;;;;;;;3.58;81.80;100234.88;5067341;28;20563;-77
2021/11/02 20:21:57;;;;;;;307.58;45.53;;;;;;;3.62;81.96;100238.72;5071473;28;20032;-76
2021/11/02 20:24:28;;;;;;;257.77;44.28;;;;;;;3.75;81.48;100241.13;5070766;28;20044;-82
2021/11/02 20:26:56;;;;;;;311.05;45.75;;;;;;;3.67;81.46;100228.00;5070157;28;20071;-75
2021/11/02 20:29:26;;;;;;;273.25;43.58;;;;;;;3.84;81.27;100238.81;5069543;28;20059;-75
2021/11/02 20:31:59;;;;;;;251.98;39.80;;;;;;;3.87;80.90;100227.50;5070511;28;20429;-75
2021/11/02 20:34:25;;;;;;;195.07;41.95;;;;;;;3.97;80.86;100241.19;5071077;28;20110;-74
2021/11/02 20:37:11;;;;;;;262.75;43.00;;;;;;;4.03;80.55;100244.81;5071663;28;20036;-85
2021/11/02 20:39:59;;;;;;;225.35;41.05;;;;;;;3.99;80.33;100239.06;5052853;28;20599;-86
2021/11/02 20:42:42;;;;;;;286.35;42.60;;;;;;;3.92;80.99;100236.53;5069009;28;20052;-85
2021/11/02 20:45:13;;;;;;;265.48;41.58;;;;;;;3.82;81.10;100225.53;5066285;28;20459;-84
2021/11/02 20:47:49;;;;;;;269.70;43.92;;;;;;;3.90;80.85;100229.72;5071534;28;20036;-84
2021/11/02 20:50:18;;;;;;;326.38;46.95;;;;;;;3.76;81.42;100226.53;5073048;28;20036;-85
2021/11/02 20:52:44;;;;;;;269.00;42.13;;;;;;;3.83;81.22;100239.88;5055261;28;20559;-84
2021/11/02 20:55:14;;;;;;;328.67;43.88;;;;;;;3.79;81.12;100215.22;5072479;28;20032;-84
2021/11/02 20:57:43;;;;;;;247.52;41.13;;;;;;;3.99;81.05;100239.06;5070513;28;20110;-81
2021/11/02 21:00:11;;;;;;;280.63;44.05;;;;;;;3.89;81.12;100217.25;5070184;28;20075;-84
2021/11/02 21:03:59;;;;;;;287.10;44.33;;;;;;;4.02;80.76;100226.94;5072960;28;20039;-85
2021/11/02 21:06:42;;;;;;;333.33;43.72;;;;;;;4.05;80.67;100213.72;5052251;28;20086;-86
2021/11/02 21:09:12;;;;;;;250.90;42.42;;;;;;;3.70;81.09;100190.47;5058166;28;20098;-86
2021/11/02 21:11:43;;;;;;;270.92;44.78;;;;;;;3.94;81.20;100225.44;5073154;28;20037;-86
2021/11/02 21:14:15;;;;;;;276.45;42.00;;;;;;;3.74;81.17;100193.50;5072902;28;20047;-85
2021/11/02 21:16:44;;;;;;;298.40;44.03;;;;;;;3.96;80.99;100226.03;5069626;28;20101;-85
2021/11/02 21:19:12;;;;;;;;;;;;;;;3.91;81.24;100228.66;5037449;28;20033;-85
2021/11/02 21:21:41;;;;;;;280.73;42.40;;;;;;;3.98;81.37;100222.03;5053271;28;19970;-86
2021/11/02 21:24:12;;;;;;;258.88;40.78;;;;;;;3.98;81.55;100227.44;5070916;28;20047;-86
2021/11/02 21:26:40;;;;;;;242.38;40.70;;;;;;;4.08;81.08;100225.94;5071328;28;20029;-85
2021/11/02 21:29:06;;;;;;;279.80;42.72;;;;;;;4.04;80.93;100228.34;5070983;28;20036;-86
2021/11/02 21:31:33;;;;;;;321.53;41.30;;;;;;;4.05;80.83;100229.16;5072615;28;20040;-85
2021/11/02 21:34:01;;;;;;;325.13;44.85;;;;;;;3.87;81.12;100198.56;5070288;28;20040;-85
2021/11/02 21:36:29;;;;;;;243.23;41.13;;;;;;;4.10;80.89;100208.38;5069867;28;20040;-86
2021/11/02 21:38:57;;;;;;;333.27;46.08;;;;;;;4.16;80.70;100225.50;5070733;28;20055;-85
2021/11/02 21:41:34;;;;;;;260.30;40.40;;;;;;;3.87;80.94;100213.97;5071101;28;20047;-85